Time;durP1;ratioP1;P1;durP2;ratioP2;P2;SDS_P1;SDS_P2;PMS_P1;PMS_P2;Temp;Humidity;BMP_temperature;BMP_pressure;BME280_temperature;BME280_humidity;BME280_pressure;Samples;Min_cycle;Max_cycle;Signal;HPM_P1;HPM_P2
2023/08/15 00:01:52;;;;;;;8.35;3.33;;;20.40;99.90;;;;;;4978503;28;20180;-87
2023/08/15 00:04:18;;;;;;;4.10;3.00;;;20.40;99.90;;;;;;4978665;28;20211;-88
2023/08/15 00:06:44;;;;;;;4.95;3.40;;;20.40;99.90;;;;;;4977512;28;20210;-88
2023/08/15 00:09:09;;;;;;;3.88;3.45;;;20.40;99.90;;;;;;4977619;28;20183;-89
2023/08/15 00:11:38;;;;;;;8.35;3.60;;;20.40;99.90;;;;;;4978320;28;20180;-88
2023/08/15 00:14:04;;;;;;;4.53;3.75;;;20.40;99.90;;;;;;4995762;28;20196;-88
2023/08/15 00:16:30;;;;;;;7.18;3.55;;;20.50;99.90;;;;;;4978229;28;20215;-88
2023/08/15 00:18:55;;;;;;;5.78;3.63;;;20.50;99.90;;;;;;4977755;28;20631;-87
2023/08/15 00:21:21;;;;;;;4.60;3.28;;;20.40;99.90;;;;;;4977638;28;20258;-87
2023/08/15 00:23:47;;;;;;;8.35;3.55;;;20.40;99.90;;;;;;4977616;28;20273;-88
2023/08/15 00:26:12;;;;;;;4.88;3.60;;;20.40;99.90;;;;;;4977691;28;20179;-88
2023/08/15 00:28:38;;;;;;;6.45;3.53;;;20.40;99.90;;;;;;4977503;28;20183;-88
2023/08/15 00:31:04;;;;;;;5.78;3.70;;;20.30;99.90;;;;;;4977956;28;20610;-88
2023/08/15 00:33:29;;;;;;;8.63;4.03;;;20.30;99.90;;;;;;4977464;28;20698;-88
2023/08/15 00:35:55;;;;;;;3.67;3.22;;;20.30;99.90;;;;;;4995777;28;20190;-87
2023/08/15 00:38:21;;;;;;;8.20;3.13;;;20.30;99.90;;;;;;4973929;28;20275;-87
2023/08/15 00:40:47;;;;;;;6.20;3.53;;;20.30;99.90;;;;;;4958160;28;20180;-88
2023/08/15 00:43:17;;;;;;;5.00;3.35;;;20.20;99.90;;;;;;4958319;28;20216;-88
2023/08/15 00:45:43;;;;;;;5.60;3.50;;;20.20;99.90;;;;;;4974731;28;20184;-88
2023/08/15 00:48:10;;;;;;;6.28;3.58;;;20.20;99.90;;;;;;4976988;28;20187;-88
2023/08/15 00:50:40;;;;;;;4.45;3.47;;;20.10;99.90;;;;;;4977604;28;20180;-88
2023/08/15 00:53:08;;;;;;;5.60;3.60;;;20.10;99.90;;;;;;4978322;28;20188;-88
2023/08/15 00:55:34;;;;;;;5.43;3.50;;;20.10;99.90;;;;;;4978346;28;20663;-88
2023/08/15 00:58:00;;;;;;;6.88;3.42;;;20.10;99.90;;;;;;4973596;28;20201;-88
2023/08/15 01:00:26;;;;;;;4.18;3.15;;;20.10;99.90;;;;;;4970004;28;20184;-88
2023/08/15 01:02:56;;;;;;;4.75;3.45;;;20.10;99.90;;;;;;4978272;28;20203;-89
2023/08/15 01:05:23;;;;;;;5.85;3.42;;;20.00;99.90;;;;;;4977667;28;20202;-88
2023/08/15 01:07:49;;;;;;;3.70;3.40;;;20.10;99.90;;;;;;4978658;28;20184;-89
2023/08/15 01:10:15;;;;;;;6.70;3.75;;;20.00;99.90;;;;;;4977969;28;20247;-88
2023/08/15 01:13:01;;;;;;;7.60;3.47;;;20.10;99.90;;;;;;4978056;28;20219;-88
2023/08/15 01:15:31;;;;;;;7.13;3.83;;;20.10;99.90;;;;;;4995141;28;20160;-87
2023/08/15 01:18:15;;;;;;;7.70;3.70;;;20.10;99.90;;;;;;4976051;28;20219;-89
2023/08/15 01:20:41;;;;;;;5.05;3.60;;;20.00;99.90;;;;;;4970822;28;20263;-90
2023/08/15 01:23:20;;;;;;;5.15;3.45;;;20.00;99.90;;;;;;4961558;28;20228;-87
2023/08/15 01:25:49;;;;;;;6.00;3.70;;;19.90;99.90;;;;;;4961905;28;20179;-89
2023/08/15 01:28:15;;;;;;;5.75;3.53;;;19.90;99.90;;;;;;4961224;28;20184;-88
2023/08/15 01:31:09;;;;;;;5.93;3.50;;;19.90;99.90;;;;;;4961875;28;20189;-89
2023/08/15 01:33:53;;;;;;;4.22;3.35;;;19.80;99.90;;;;;;4947553;28;20255;-89
2023/08/15 01:36:28;;;;;;;10.32;3.30;;;19.80;99.90;;;;;;4961448;28;20259;-88
2023/08/15 01:39:05;;;;;;;15.77;3.90;;;19.80;99.90;;;;;;4949972;29;20640;-88
2023/08/15 01:41:38;;;;;;;7.28;3.72;;;19.90;99.90;;;;;;4942032;29;20225;-88
2023/08/15 01:44:09;;;;;;;6.72;3.83;;;19.90;99.90;;;;;;4942232;29;20292;-89
2023/08/15 01:46:35;;;;;;;7.15;4.20;;;19.90;99.90;;;;;;4961982;28;20185;-87
2023/08/15 01:49:00;;;;;;;6.22;3.65;;;19.90;99.90;;;;;;4960626;28;20199;-88
2023/08/15 01:51:26;;;;;;;8.50;3.78;;;19.90;99.90;;;;;;4961284;28;20188;-87
2023/08/15 01:53:54;;;;;;;6.85;3.70;;;19.80;99.90;;;;;;4961428;28;20188;-88
2023/08/15 01:56:20;;;;;;;8.98;3.95;;;19.90;99.90;;;;;;4960825;28;20518;-88
2023/08/15 01:58:46;;;;;;;6.63;3.78;;;19.80;99.90;;;;;;4950055;28;20180;-88
2023/08/15 02:01:12;;;;;;;5.35;4.05;;;19.90;99.90;;;;;;4960985;28;20212;-88
2023/08/15 02:03:38;;;;;;;4.80;3.17;;;19.80;99.90;;;;;;4961037;28;20212;-88
2023/08/15 02:06:04;;;;;;;5.40;4.18;;;19.80;99.90;;;;;;4959626;28;20188;-88
2023/08/15 02:08:30;;;;;;;6.43;3.78;;;19.80;99.90;;;;;;4959814;28;20223;-88
2023/08/15 02:10:56;;;;;;;8.20;3.80;;;19.80;99.90;;;;;;4960863;28;20212;-88
2023/08/15 02:13:21;;;;;;;6.90;3.78;;;19.80;99.90;;;;;;4960385;28;20185;-88
2023/08/15 02:15:47;;;;;;;5.30;3.50;;;19.90;99.90;;;;;;4960675;28;20173;-88
2023/08/15 02:18:13;;;;;;;12.75;3.45;;;19.90;99.90;;;;;;4960188;28;20608;-89
2023/08/15 02:20:39;;;;;;;3.60;3.30;;;19.90;99.90;;;;;;4986648;28;20306;-88
2023/08/15 02:23:08;;;;;;;6.95;3.88;;;19.80;99.90;;;;;;4980091;28;20354;-88
2023/08/15 02:25:34;;;;;;;6.65;4.03;;;19.80;99.90;;;;;;4980259;28;20175;-88
2023/08/15 02:27:59;;;;;;;7.22;3.45;;;19.80;99.90;;;;;;4995074;28;20191;-89
2023/08/15 02:30:25;;;;;;;5.15;3.58;;;19.60;99.90;;;;;;4979178;28;20638;-88
2023/08/15 02:32:51;;;;;;;8.82;3.60;;;19.60;99.90;;;;;;4979877;28;20190;-88
2023/08/15 02:35:18;;;;;;;6.78;3.88;;;19.60;99.90;;;;;;4979231;28;20184;-89
2023/08/15 02:37:44;;;;;;;5.82;3.00;;;19.50;99.90;;;;;;4996477;28;20180;-88
2023/08/15 02:40:10;;;;;;;5.32;2.88;;;19.50;99.90;;;;;;4961735;28;20251;-87
2023/08/15 02:42:36;;;;;;;6.32;3.10;;;19.50;99.90;;;;;;4960301;28;20295;-88
2023/08/15 02:45:04;;;;;;;7.57;3.53;;;19.50;99.90;;;;;;4960700;28;20188;-89
2023/08/15 02:47:30;;;;;;;4.45;3.20;;;19.50;99.90;;;;;;4968701;28;20238;-89
2023/08/15 02:49:55;;;;;;;4.45;3.03;;;19.50;99.90;;;;;;4979064;28;20620;-88
2023/08/15 02:52:21;;;;;;;3.58;3.25;;;19.40;99.90;;;;;;4979376;28;20183;-88
2023/08/15 02:54:48;;;;;;;5.18;3.00;;;19.30;99.90;;;;;;4979769;28;20184;-89
2023/08/15 02:57:13;;;;;;;5.03;3.20;;;19.30;99.90;;;;;;4979011;28;20187;-89
2023/08/15 02:59:39;;;;;;;4.93;3.05;;;19.30;99.90;;;;;;4978910;28;20180;-89
2023/08/15 03:02:05;;;;;;;7.18;3.50;;;19.30;99.90;;;;;;4979284;28;20255;-87
2023/08/15 03:04:36;;;;;;;6.57;3.80;;;19.30;99.90;;;;;;4979591;28;20194;-89
2023/08/15 03:07:05;;;;;;;6.78;3.83;;;19.20;99.90;;;;;;4979141;28;20626;-88
2023/08/15 03:09:30;;;;;;;6.50;3.55;;;19.20;99.90;;;;;;4978784;28;20191;-88
2023/08/15 03:11:56;;;;;;;7.43;3.88;;;19.30;99.90;;;;;;4978644;28;20172;-87
2023/08/15 03:14:28;;;;;;;9.77;3.53;;;19.30;99.90;;;;;;4979127;28;20271;-88
2023/08/15 03:16:54;;;;;;;6.00;3.35;;;19.30;99.90;;;;;;4979001;28;20180;-89
2023/08/15 03:19:20;;;;;;;6.10;3.30;;;19.40;99.90;;;;;;4978540;28;20263;-88
2023/08/15 03:21:46;;;;;;;5.18;3.00;;;19.40;99.90;;;;;;4961097;28;20333;-88
2023/08/15 03:24:12;;;;;;;6.20;3.55;;;19.40;99.90;;;;;;4959310;28;20212;-88
2023/08/15 03:26:38;;;;;;;6.05;3.25;;;19.40;99.90;;;;;;4959805;28;20176;-89
2023/08/15 03:29:07;;;;;;;10.02;3.30;;;19.40;99.90;;;;;;4958504;28;20188;-88
2023/08/15 03:31:33;;;;;;;4.18;3.03;;;19.40;99.90;;;;;;4959736;28;20176;-89
2023/08/15 03:33:58;;;;;;;5.82;3.70;;;19.30;99.90;;;;;;4959402;28;20522;-89
2023/08/15 03:36:24;;;;;;;5.63;3.20;;;19.20;99.90;;;;;;4959718;28;20176;-89
2023/08/15 03:38:50;;;;;;;5.60;3.38;;;19.20;99.90;;;;;;4945942;28;20191;-89
2023/08/15 03:41:15;;;;;;;6.30;3.85;;;19.10;99.90;;;;;;4959409;28;20181;-89
2023/08/15 03:43:41;;;;;;;5.10;3.42;;;19.10;99.90;;;;;;4959026;28;20216;-89
2023/08/15 03:46:08;;;;;;;7.85;3.33;;;19.10;99.90;;;;;;4958815;28;20180;-89
2023/08/15 03:48:35;;;;;;;4.80;3.42;;;19.00;99.90;;;;;;4958065;28;20191;-89
2023/08/15 03:51:02;;;;;;;9.70;3.83;;;19.00;99.90;;;;;;4957467;28;20177;-88
2023/08/15 03:53:28;;;;;;;5.18;3.45;;;19.10;99.90;;;;;;4959205;28;20184;-90
2023/08/15 03:56:01;;;;;;;7.05;4.13;;;19.10;99.90;;;;;;4959498;28;20180;-89
2023/08/15 03:58:27;;;;;;;7.70;3.60;;;19.00;99.90;;;;;;4958752;28;20235;-89
2023/08/15 04:00:53;;;;;;;6.68;3.20;;;19.00;99.90;;;;;;4958098;28;20184;-88
2023/08/15 04:03:19;;;;;;;5.50;3.50;;;19.10;99.90;;;;;;4958989;28;20216;-89
2023/08/15 04:05:54;;;;;;;5.70;3.20;;;19.20;99.90;;;;;;4959384;28;20272;-88
2023/08/15 04:08:19;;;;;;;5.47;3.35;;;19.10;99.90;;;;;;4959760;28;20183;-89
2023/08/15 04:10:46;;;;;;;7.10;3.63;;;19.10;99.90;;;;;;4958280;28;20187;-88
2023/08/15 04:13:13;;;;;;;6.63;2.92;;;19.10;99.90;;;;;;4948658;29;20245;-89
2023/08/15 04:15:44;;;;;;;5.53;3.38;;;19.20;99.90;;;;;;4948758;28;20188;-89
2023/08/15 04:18:10;;;;;;;4.68;3.20;;;19.20;99.90;;;;;;4975896;28;20212;-89
2023/08/15 04:20:37;;;;;;;5.60;3.38;;;19.20;99.90;;;;;;4958340;28;20260;-89
2023/08/15 04:23:04;;;;;;;4.40;3.20;;;19.20;99.90;;;;;;4959010;28;20561;-89
2023/08/15 04:25:31;;;;;;;7.45;3.30;;;19.20;99.90;;;;;;4958916;28;20188;-89
2023/08/15 04:27:57;;;;;;;5.57;3.38;;;19.20;99.90;;;;;;4954812;29;20189;-89
2023/08/15 04:30:23;;;;;;;7.22;3.42;;;19.30;99.90;;;;;;4948916;28;20611;-89
2023/08/15 04:32:48;;;;;;;7.97;3.60;;;19.30;99.90;;;;;;4958974;28;20188;-89
2023/08/15 04:35:18;;;;;;;7.60;3.60;;;19.20;99.90;;;;;;4958897;28;20255;-89
2023/08/15 04:37:44;;;;;;;5.60;3.92;;;19.30;99.90;;;;;;4957861;28;20267;-89
2023/08/15 04:40:12;;;;;;;5.25;3.60;;;19.30;99.90;;;;;;4956311;28;20204;-89
2023/08/15 04:42:39;;;;;;;6.90;3.38;;;19.30;99.90;;;;;;4958412;28;20215;-89
2023/08/15 04:45:15;;;;;;;5.70;2.88;;;19.30;99.90;;;;;;4958168;28;20215;-89
2023/08/15 04:47:40;;;;;;;7.03;3.22;;;19.40;99.90;;;;;;4958393;28;20180;-91
2023/08/15 04:50:08;;;;;;;7.68;3.25;;;19.40;99.90;;;;;;4954360;29;20579;-91
2023/08/15 04:52:34;;;;;;;10.05;3.35;;;19.40;99.90;;;;;;4958786;28;20262;-90
2023/08/15 04:55:01;;;;;;;3.60;3.03;;;19.40;99.90;;;;;;4960765;28;20176;-89
2023/08/15 04:57:27;;;;;;;6.40;3.13;;;19.40;99.90;;;;;;4962571;28;20723;-89
2023/08/15 04:59:53;;;;;;;5.45;2.97;;;19.40;99.90;;;;;;4955724;28;20177;-89
2023/08/15 05:02:18;;;;;;;6.40;3.38;;;19.50;99.90;;;;;;4962414;28;20254;-89
2023/08/15 05:04:44;;;;;;;3.40;2.90;;;19.50;99.90;;;;;;4961905;28;20185;-90
2023/08/15 05:07:10;;;;;;;6.50;3.35;;;19.50;99.90;;;;;;4962442;28;20245;-90
2023/08/15 05:09:37;;;;;;;6.65;2.83;;;19.60;99.90;;;;;;4973582;28;20194;-88
2023/08/15 05:12:03;;;;;;;5.25;3.17;;;19.60;99.90;;;;;;4962243;28;20627;-89
2023/08/15 05:14:29;;;;;;;6.22;3.00;;;19.70;99.90;;;;;;4962326;28;20184;-89
2023/08/15 05:16:57;;;;;;;5.13;3.15;;;19.80;99.90;;;;;;4962507;28;20177;-88
2023/08/15 05:19:24;;;;;;;8.02;3.20;;;19.80;99.90;;;;;;4961201;28;20220;-90
2023/08/15 05:21:49;;;;;;;5.45;3.08;;;19.90;99.90;;;;;;4960993;28;20236;-87
2023/08/15 05:24:15;;;;;;;5.80;3.38;;;20.00;99.90;;;;;;4959630;28;20189;-89
2023/08/15 05:26:43;;;;;;;4.10;3.10;;;20.20;99.90;;;;;;4961566;28;20188;-89
2023/08/15 05:29:09;;;;;;;4.78;2.90;;;20.30;99.90;;;;;;4979176;28;20173;-90
2023/08/15 05:31:34;;;;;;;4.38;2.90;;;20.40;99.90;;;;;;4959223;28;20272;-90
2023/08/15 05:34:00;;;;;;;4.78;2.90;;;20.60;99.90;;;;;;4961174;28;20524;-89
2023/08/15 05:36:29;;;;;;;4.75;3.13;;;20.60;99.90;;;;;;4954094;28;20223;-89
2023/08/15 05:38:55;;;;;;;3.80;2.85;;;20.80;99.90;;;;;;4978642;28;20176;-89
2023/08/15 05:41:20;;;;;;;3.35;2.60;;;20.80;99.90;;;;;;4973832;28;20184;-87
2023/08/15 05:43:46;;;;;;;5.00;2.85;;;20.90;99.90;;;;;;4960704;28;20203;-87
2023/08/15 05:46:12;;;;;;;8.45;3.00;;;21.00;99.90;;;;;;4955557;28;20238;-88
2023/08/15 05:48:38;;;;;;;6.93;2.92;;;21.00;99.90;;;;;;4961432;28;20180;-90
2023/08/15 05:51:04;;;;;;;9.98;2.90;;;21.10;99.90;;;;;;4958269;28;20208;-89
2023/08/15 05:53:31;;;;;;;4.97;2.85;;;21.20;99.90;;;;;;4955474;29;20177;-91
2023/08/15 05:55:57;;;;;;;6.20;3.00;;;21.30;99.90;;;;;;4954418;28;20514;-89
2023/08/15 05:58:23;;;;;;;7.30;3.20;;;21.40;99.90;;;;;;4976573;28;20713;-87
2023/08/15 06:00:51;;;;;;;9.95;3.55;;;21.50;99.90;;;;;;4976958;28;20176;-91
2023/08/15 06:03:17;;;;;;;5.03;3.35;;;21.60;99.90;;;;;;4951567;29;20216;-89
2023/08/15 06:05:42;;;;;;;8.13;3.70;;;21.70;99.90;;;;;;4953551;28;20184;-91
2023/08/15 06:08:08;;;;;;;9.88;3.47;;;21.80;99.90;;;;;;4959516;28;20199;-89
2023/08/15 06:10:34;;;;;;;6.65;3.58;;;21.80;99.90;;;;;;4953679;28;20173;-88
2023/08/15 06:12:59;;;;;;;7.65;3.38;;;21.80;99.90;;;;;;4973878;28;20188;-89
2023/08/15 06:15:25;;;;;;;7.38;3.17;;;21.90;99.90;;;;;;4961169;28;20189;-87
2023/08/15 06:17:55;;;;;;;7.05;3.33;;;21.90;99.90;;;;;;4960497;28;20663;-89
2023/08/15 06:20:21;;;;;;;7.05;3.47;;;22.00;99.90;;;;;;4983392;28;20234;-90
2023/08/15 06:22:46;;;;;;;6.35;3.20;;;22.10;99.90;;;;;;4977438;28;20294;-89
2023/08/15 06:25:12;;;;;;;10.23;3.75;;;22.20;99.90;;;;;;4991536;28;20203;-88
2023/08/15 06:27:40;;;;;;;7.22;3.42;;;22.30;99.90;;;;;;4977271;28;20183;-89
2023/08/15 06:30:06;;;;;;;6.28;3.00;;;22.30;99.90;;;;;;4978907;28;20180;-88
2023/08/15 06:32:32;;;;;;;6.63;3.47;;;22.20;99.90;;;;;;4978283;28;20176;-88
2023/08/15 06:35:01;;;;;;;9.38;3.40;;;22.20;99.90;;;;;;4978466;28;20191;-88
2023/08/15 06:37:27;;;;;;;5.05;3.50;;;22.10;99.90;;;;;;4996466;28;20183;-88
2023/08/15 06:39:52;;;;;;;7.93;3.20;;;22.10;99.90;;;;;;4979438;28;20180;-92
2023/08/15 06:42:18;;;;;;;7.25;3.83;;;22.20;99.90;;;;;;4974414;28;20670;-90
2023/08/15 06:44:44;;;;;;;5.15;3.28;;;22.30;99.90;;;;;;4974585;28;20190;-91
2023/08/15 06:47:10;;;;;;;7.82;3.33;;;22.40;99.90;;;;;;4977055;28;20632;-89
2023/08/15 06:49:36;;;;;;;7.55;3.80;;;22.50;99.90;;;;;;4977340;28;20207;-88
2023/08/15 06:52:03;;;;;;;9.05;3.72;;;22.50;99.90;;;;;;4979953;28;20180;-91
2023/08/15 06:54:29;;;;;;;5.75;3.40;;;22.60;99.90;;;;;;4977648;28;20180;-90
2023/08/15 06:56:57;;;;;;;5.35;3.55;;;22.60;99.90;;;;;;4974890;28;20287;-91
2023/08/15 06:59:23;;;;;;;7.43;3.67;;;22.50;99.90;;;;;;4979226;28;20188;-90
2023/08/15 07:01:52;;;;;;;6.18;3.45;;;22.50;99.90;;;;;;4978399;28;20512;-88
2023/08/15 07:04:18;;;;;;;8.70;3.85;;;22.40;99.90;;;;;;4970661;28;20251;-89
2023/08/15 07:06:45;;;;;;;7.47;3.80;;;22.30;99.90;;;;;;4975388;28;20176;-87
2023/08/15 07:09:11;;;;;;;8.00;3.47;;;22.20;99.90;;;;;;4996739;28;20259;-88
2023/08/15 07:11:37;;;;;;;6.90;4.10;;;22.10;99.90;;;;;;4979541;28;20172;-91
2023/08/15 07:14:03;;;;;;;9.05;3.72;;;22.00;99.90;;;;;;4978781;28;20191;-92
2023/08/15 07:16:28;;;;;;;9.20;4.03;;;21.90;99.90;;;;;;4978220;28;20180;-91
2023/08/15 07:18:54;;;;;;;12.80;4.65;;;21.80;99.90;;;;;;4977908;28;20614;-84
2023/08/15 07:21:20;;;;;;;14.63;5.03;;;21.60;99.90;;;;;;4995432;28;20224;-83
2023/08/15 07:23:45;;;;;;;9.07;4.25;;;21.60;99.90;;;;;;4976857;28;20238;-83
2023/08/15 07:26:11;;;;;;;7.93;4.05;;;21.50;99.90;;;;;;4994644;28;20307;-83
2023/08/15 07:28:37;;;;;;;6.97;4.03;;;21.40;99.90;;;;;;4976301;28;20184;-84
2023/08/15 07:31:03;;;;;;;9.88;4.50;;;21.40;99.90;;;;;;4973992;28;20271;-82
2023/08/15 07:33:29;;;;;;;5.93;4.43;;;21.20;99.90;;;;;;4974543;28;20188;-83
2023/08/15 07:35:55;;;;;;;8.18;3.95;;;21.20;99.90;;;;;;4977275;28;20171;-83
2023/08/15 07:38:20;;;;;;;6.75;4.32;;;21.10;99.90;;;;;;4993544;28;20534;-83
2023/08/15 07:40:47;;;;;;;7.55;3.83;;;21.00;99.90;;;;;;4969910;28;20182;-81
2023/08/15 07:43:14;;;;;;;8.02;4.05;;;21.00;99.90;;;;;;4969016;28;20280;-82
2023/08/15 07:45:39;;;;;;;9.55;4.32;;;20.90;99.90;;;;;;4962366;28;20184;-83
2023/08/15 07:48:05;;;;;;;6.65;4.30;;;20.90;99.90;;;;;;4976857;28;20270;-83
2023/08/15 07:50:31;;;;;;;9.77;4.57;;;20.90;99.90;;;;;;4994312;28;20190;-83
2023/08/15 07:53:00;;;;;;;5.70;3.83;;;20.90;99.90;;;;;;4975972;28;20180;-83
2023/08/15 07:55:27;;;;;;;8.23;4.15;;;20.90;99.90;;;;;;4976295;28;20180;-83
2023/08/15 07:57:53;;;;;;;7.72;3.88;;;21.00;99.90;;;;;;4977109;28;20607;-83
2023/08/15 08:00:19;;;;;;;6.32;3.75;;;21.00;99.90;;;;;;4992424;28;20216;-83
2023/08/15 08:02:45;;;;;;;6.80;4.07;;;21.00;99.90;;;;;;4978557;28;20215;-84
2023/08/15 08:05:12;;;;;;;7.18;3.70;;;21.10;99.90;;;;;;4971437;28;20188;-87
2023/08/15 08:07:41;;;;;;;9.05;3.92;;;21.00;99.90;;;;;;4976944;28;20275;-83
2023/08/15 08:10:07;;;;;;;7.28;3.88;;;21.10;99.90;;;;;;4976481;28;20180;-83
2023/08/15 08:12:35;;;;;;;6.82;3.97;;;21.20;99.90;;;;;;4975370;28;20176;-82
2023/08/15 08:15:02;;;;;;;6.72;3.95;;;21.40;99.90;;;;;;4977041;28;20183;-82
2023/08/15 08:17:27;;;;;;;5.65;3.70;;;21.60;99.90;;;;;;4972185;28;20180;-83
2023/08/15 08:19:54;;;;;;;6.72;4.40;;;21.80;99.90;;;;;;4970641;28;20254;-82
2023/08/15 08:22:19;;;;;;;5.15;3.92;;;22.20;99.90;;;;;;4993123;28;20203;-83
2023/08/15 08:24:48;;;;;;;8.50;3.60;;;22.40;99.90;;;;;;4976782;28;20246;-83
2023/08/15 08:27:14;;;;;;;9.60;3.50;;;22.50;99.90;;;;;;4975993;28;20521;-83
2023/08/15 08:29:40;;;;;;;6.72;3.28;;;22.50;99.90;;;;;;4995635;28;20611;-83
2023/08/15 08:32:07;;;;;;;7.90;3.10;;;22.50;99.90;;;;;;4966304;28;20187;-82
2023/08/15 08:34:33;;;;;;;9.63;3.22;;;22.50;99.90;;;;;;4980660;28;20623;-83
2023/08/15 08:36:58;;;;;;;5.95;3.63;;;22.40;99.90;;;;;;4980633;28;20202;-84
2023/08/15 08:39:25;;;;;;;5.55;3.42;;;22.50;99.90;;;;;;4997833;28;20176;-84
2023/08/15 08:41:51;;;;;;;5.68;3.83;;;22.60;99.90;;;;;;4977799;28;20194;-84
2023/08/15 08:44:17;;;;;;;5.97;4.10;;;22.90;99.90;;;;;;4981013;28;20283;-85
2023/08/15 08:46:44;;;;;;;5.57;3.75;;;23.10;99.90;;;;;;4998544;28;20180;-84
2023/08/15 08:49:11;;;;;;;4.95;3.38;;;23.20;99.90;;;;;;4981135;28;20186;-85
2023/08/15 08:51:38;;;;;;;5.70;3.45;;;23.30;99.90;;;;;;4979931;28;20203;-84
2023/08/15 08:54:04;;;;;;;8.50;3.38;;;23.30;99.90;;;;;;4981336;28;20260;-86
2023/08/15 08:56:31;;;;;;;5.25;3.55;;;23.20;99.90;;;;;;4981045;28;20184;-84
2023/08/15 08:59:10;;;;;;;4.15;3.47;;;23.20;99.90;;;;;;4980701;28;20285;-84
2023/08/15 09:01:38;;;;;;;5.05;3.10;;;23.30;99.90;;;;;;4996616;28;20642;-85
2023/08/15 09:04:04;;;;;;;5.78;3.60;;;23.50;99.90;;;;;;4979796;28;20215;-83
2023/08/15 09:06:29;;;;;;;4.85;3.00;;;23.70;99.90;;;;;;4980145;28;20180;-85
2023/08/15 09:08:58;;;;;;;4.28;3.30;;;23.80;99.90;;;;;;4979469;28;20512;-86
2023/08/15 09:11:33;;;;;;;3.08;2.15;;;23.90;99.90;;;;;;4997541;28;20176;-87
2023/08/15 09:14:05;;;;;;;6.82;2.33;;;24.00;99.90;;;;;;4980857;28;20189;-86
2023/08/15 09:16:32;;;;;;;3.97;2.22;;;24.00;99.90;;;;;;4998314;28;20250;-86
2023/08/15 09:19:02;;;;;;;3.47;1.70;;;23.90;99.90;;;;;;4997067;28;20626;-87
2023/08/15 09:21:29;;;;;;;4.90;1.85;;;24.00;99.90;;;;;;4964965;28;20224;-86
2023/08/15 09:23:59;;;;;;;7.43;2.13;;;24.00;99.90;;;;;;4958809;28;20208;-89
2023/08/15 09:26:25;;;;;;;4.95;2.33;;;24.10;99.90;;;;;;4963941;28;20173;-85
2023/08/15 09:29:06;;;;;;;2.42;1.75;;;24.20;99.90;;;;;;4977324;28;20280;-86
2023/08/15 09:31:32;;;;;;;4.57;2.17;;;24.40;99.90;;;;;;4967727;28;20279;-87
2023/08/15 09:33:58;;;;;;;4.72;2.00;;;24.40;99.90;;;;;;4950884;28;20215;-89
2023/08/15 09:36:24;;;;;;;3.33;2.10;;;24.50;99.90;;;;;;4979186;28;20175;-87
2023/08/15 09:39:00;;;;;;;3.70;1.80;;;24.50;99.90;;;;;;4961129;28;20183;-88
2023/08/15 09:41:26;;;;;;;4.22;2.00;;;24.70;99.90;;;;;;4960955;28;20167;-87
2023/08/15 09:43:53;;;;;;;2.72;1.67;;;24.70;99.90;;;;;;4978243;28;20212;-85
2023/08/15 09:46:19;;;;;;;3.85;1.83;;;24.70;99.90;;;;;;4959799;28;20552;-91
2023/08/15 09:48:48;;;;;;;2.40;1.80;;;24.70;99.90;;;;;;4978359;28;20176;-87
2023/08/15 09:51:16;;;;;;;3.60;1.70;;;24.50;99.90;;;;;;4961206;28;20172;-87
2023/08/15 09:53:43;;;;;;;2.55;1.70;;;24.40;99.90;;;;;;4961739;28;20674;-87
2023/08/15 09:56:09;;;;;;;5.78;1.70;;;24.40;99.90;;;;;;4958440;28;20204;-91
2023/08/15 09:58:42;;;;;;;2.17;1.60;;;24.60;99.90;;;;;;4961075;28;20184;-86
2023/08/15 10:01:09;;;;;;;4.03;1.52;;;24.50;99.90;;;;;;4961314;28;20577;-86
2023/08/15 10:03:38;;;;;;;3.63;1.75;;;24.60;99.90;;;;;;4948807;29;20304;-88
2023/08/15 10:06:06;;;;;;;1.63;1.30;;;24.60;99.90;;;;;;4939789;29;20220;-88
2023/08/15 10:08:42;;;;;;;3.45;1.15;;;24.70;99.90;;;;;;4954894;28;20200;-90
2023/08/15 10:11:09;;;;;;;3.05;1.23;;;24.90;99.90;;;;;;4964334;28;20199;-87
2023/08/15 10:13:39;;;;;;;4.55;1.25;;;25.00;99.90;;;;;;4963906;28;20189;-91
2023/08/15 10:16:12;;;;;;;6.05;1.40;;;25.00;99.90;;;;;;4963753;28;20268;-89
2023/08/15 10:18:38;;;;;;;2.17;1.13;;;25.20;99.90;;;;;;4964068;28;20485;-88
2023/08/15 10:21:04;;;;;;;2.33;1.48;;;25.30;99.90;;;;;;4962059;28;20224;-88
2023/08/15 10:23:34;;;;;;;2.33;1.08;;;25.40;99.90;;;;;;4955946;28;20651;-89
2023/08/15 10:26:01;;;;;;;1.88;1.10;;;25.30;99.90;;;;;;4961045;28;20203;-90
2023/08/15 10:28:34;;;;;;;1.25;1.15;;;25.20;99.90;;;;;;4960709;28;20196;-88
2023/08/15 10:31:02;;;;;;;1.08;0.90;;;25.30;99.90;;;;;;4960613;28;20492;-92
2023/08/15 10:33:33;;;;;;;1.45;0.95;;;25.30;99.90;;;;;;4967457;28;20590;-92
2023/08/15 10:35:59;;;;;;;1.88;0.90;;;25.40;99.90;;;;;;4979368;28;20530;-90
2023/08/15 10:38:37;;;;;;;2.05;1.10;;;25.40;99.90;;;;;;4980184;28;20176;-91
2023/08/15 10:41:13;;;;;;;2.25;0.93;;;25.50;99.90;;;;;;4945821;29;20181;-94
2023/08/15 10:43:39;;;;;;;1.15;0.80;;;25.60;99.90;;;;;;4958446;29;20234;-92
2023/08/15 10:46:06;;;;;;;1.90;1.10;;;25.80;99.90;;;;;;4972604;28;20623;-92
2023/08/15 10:48:43;;;;;;;1.23;0.80;;;25.90;99.90;;;;;;4980591;28;20187;-93
2023/08/15 10:51:20;;;;;;;1.05;0.70;;;26.00;99.90;;;;;;4964778;28;20188;-93
2023/08/15 10:53:54;;;;;;;1.38;0.93;;;26.10;99.90;;;;;;4980327;28;20267;-93
2023/08/15 10:56:22;;;;;;;2.97;0.80;;;26.20;99.90;;;;;;4979107;28;20611;-94
2023/08/15 10:58:49;;;;;;;2.55;0.75;;;26.20;99.90;;;;;;4976705;28;22146;-95
2023/08/15 11:01:28;;;;;;;2.75;1.00;;;26.20;99.90;;;;;;4981216;28;20559;-94
2023/08/15 11:03:55;;;;;;;4.00;1.15;;;26.30;99.90;;;;;;4956711;28;20208;-93
2023/08/15 11:06:21;;;;;;;2.53;0.82;;;26.30;99.90;;;;;;4952670;28;20209;-92
2023/08/15 11:08:53;;;;;;;1.02;0.90;;;26.30;99.90;;;;;;4942462;28;20757;-91
2023/08/15 11:11:32;;;;;;;1.00;0.90;;;26.30;99.90;;;;;;4978912;28;20228;-94
2023/08/15 11:13:59;;;;;;;2.63;0.90;;;26.50;99.90;;;;;;4946092;28;20224;-94
2023/08/15 11:16:41;;;;;;;1.27;0.90;;;26.50;99.90;;;;;;4972430;28;20628;-92
2023/08/15 11:19:07;;;;;;;1.83;0.98;;;26.50;99.90;;;;;;4977229;28;20197;-92
2023/08/15 11:21:33;;;;;;;2.38;1.02;;;26.60;99.90;;;;;;4979530;28;20231;-93
2023/08/15 11:24:00;;;;;;;1.45;1.10;;;26.50;99.90;;;;;;4982750;28;20219;-96
2023/08/15 11:26:26;;;;;;;2.20;0.90;;;26.60;99.90;;;;;;4980219;28;20678;-94
2023/08/15 11:28:52;;;;;;;1.40;1.00;;;26.60;99.90;;;;;;4979506;28;20184;-93
2023/08/15 11:31:18;;;;;;;2.05;1.20;;;26.50;99.90;;;;;;4979450;28;20187;-95
2023/08/15 11:33:48;;;;;;;2.00;1.17;;;26.50;99.90;;;;;;4978058;28;20265;-93
2023/08/15 11:36:14;;;;;;;1.50;1.17;;;26.60;99.90;;;;;;4996899;28;20184;-95
2023/08/15 11:38:39;;;;;;;2.65;1.30;;;26.70;99.90;;;;;;4994005;28;20179;-93
2023/08/15 11:41:10;;;;;;;2.00;1.17;;;26.80;99.90;;;;;;4967115;28;20619;-95
2023/08/15 11:43:36;;;;;;;1.98;1.20;;;26.90;99.90;;;;;;4981828;28;20549;-95
2023/08/15 11:46:06;;;;;;;2.00;1.25;;;27.00;99.90;;;;;;4982161;28;20179;-95
2023/08/15 11:48:34;;;;;;;3.20;1.00;;;27.10;99.90;;;;;;4980864;28;20215;-96
2023/08/15 11:51:05;;;;;;;1.42;1.10;;;27.10;99.90;;;;;;4980310;28;20180;-94
2023/08/15 11:53:31;;;;;;;2.45;1.25;;;27.20;99.90;;;;;;4979719;28;20283;-95
2023/08/15 11:55:57;;;;;;;7.88;1.38;;;27.20;99.90;;;;;;4983091;28;20175;-90
2023/08/15 11:58:41;;;;;;;2.88;1.20;;;27.20;99.90;;;;;;4981536;28;20180;-94
2023/08/15 12:01:27;;;;;;;5.20;1.25;;;27.20;99.90;;;;;;4997222;28;20168;-95
2023/08/15 12:03:53;;;;;;;1.80;1.20;;;27.20;99.90;;;;;;4978152;28;20655;-90
2023/08/15 19:11:48;;;;;;;8.05;5.10;;;22.30;99.90;;;;;;5291496;23;20328;-91
2023/08/15 19:14:14;;;;;;;9.32;6.15;;;22.30;99.90;;;;;;4933660;29;20204;-92
2023/08/15 19:16:40;;;;;;;7.30;5.07;;;22.30;99.90;;;;;;4921614;29;20265;-92
2023/08/15 19:19:05;;;;;;;8.00;5.68;;;22.20;99.90;;;;;;4921940;29;20692;-92
2023/08/15 19:21:33;;;;;;;10.05;6.47;;;22.20;99.90;;;;;;4933071;29;20605;-92
2023/08/15 19:23:59;;;;;;;11.95;6.45;;;22.20;99.90;;;;;;4940751;29;20213;-91
2023/08/15 19:26:24;;;;;;;6.85;5.55;;;22.10;99.90;;;;;;4940502;29;20182;-90
2023/08/15 19:28:50;;;;;;;7.82;4.75;;;22.10;99.90;;;;;;4958218;29;20178;-96
2023/08/15 19:31:16;;;;;;;6.72;5.25;;;22.10;99.90;;;;;;4940327;29;20193;-92
2023/08/15 19:33:45;;;;;;;11.23;6.35;;;22.10;99.90;;;;;;4939974;29;20185;-92
2023/08/15 19:36:10;;;;;;;8.65;5.72;;;22.10;99.90;;;;;;4940223;29;20744;-91
2023/08/15 19:38:36;;;;;;;9.25;7.03;;;22.00;99.90;;;;;;4940698;29;20213;-90
2023/08/15 19:41:02;;;;;;;11.88;6.50;;;22.10;99.90;;;;;;4940438;29;20517;-92
2023/08/15 19:43:28;;;;;;;7.68;6.85;;;22.10;99.90;;;;;;4939150;29;20194;-91
2023/08/15 19:45:54;;;;;;;7.63;5.72;;;22.00;99.90;;;;;;4940640;29;20184;-91
2023/08/15 19:48:20;;;;;;;10.32;6.82;;;22.00;99.90;;;;;;4939710;29;20269;-91
2023/08/15 19:50:46;;;;;;;8.02;6.85;;;22.00;99.90;;;;;;4940188;29;20517;-90
2023/08/15 19:53:12;;;;;;;10.93;6.57;;;22.00;99.90;;;;;;4939626;29;20260;-90